Time;durP1;ratioP1;P1;durP2;ratioP2;P2;SDS_P1;SDS_P2;PMS_P1;PMS_P2;Temp;Humidity;BMP_temperature;BMP_pressure;BME280_temperature;BME280_humidity;BME280_pressure;Samples;Min_cycle;Max_cycle;Signal;HPM_P1;HPM_P2
2021/08/08 00:00:06;;;;;;;0.30;0.30;;;24.30;59.30;;;;;;6240952;28;20052;-71
2021/08/08 00:03:07;;;;;;;0.30;0.30;;;24.30;59.30;;;;;;6240816;28;20036;-71
2021/08/08 00:06:08;;;;;;;0.38;0.30;;;24.30;60.00;;;;;;6241021;28;20026;-71
2021/08/08 00:09:09;;;;;;;0.30;0.30;;;24.40;59.40;;;;;;6242822;28;20511;-71
2021/08/08 00:12:10;;;;;;;0.40;0.32;;;24.30;59.30;;;;;;6246118;28;20034;-70
2021/08/08 00:15:12;;;;;;;0.30;0.30;;;24.40;59.40;;;;;;6227057;28;20500;-71
2021/08/08 00:18:13;;;;;;;0.70;0.32;;;24.40;59.40;;;;;;6228453;28;20484;-71
2021/08/08 00:21:13;;;;;;;0.20;0.20;;;24.30;59.30;;;;;;6246047;28;20044;-71
2021/08/08 00:24:14;;;;;;;0.80;0.32;;;24.30;59.30;;;;;;6245328;28;20125;-71
2021/08/08 00:27:14;;;;;;;0.43;0.28;;;24.40;59.40;;;;;;6245644;28;20049;-71
2021/08/08 00:30:15;;;;;;;0.20;0.20;;;24.30;59.30;;;;;;6245734;28;20484;-70
2021/08/08 00:33:17;;;;;;;0.50;0.38;;;24.30;59.30;;;;;;6245124;28;20026;-71
2021/08/08 00:36:17;;;;;;;0.55;0.40;;;24.40;59.40;;;;;;6245471;28;20037;-71
2021/08/08 00:39:20;;;;;;;0.40;0.30;;;24.30;59.30;;;;;;6245271;28;20029;-70
2021/08/08 00:42:21;;;;;;;0.20;0.20;;;24.30;60.00;;;;;;6245162;28;20493;-70
2021/08/08 00:45:21;;;;;;;0.40;0.35;;;24.30;59.30;;;;;;6245251;28;20124;-70
2021/08/08 00:48:22;;;;;;;0.30;0.30;;;24.30;59.30;;;;;;6244826;28;20036;-71
2021/08/08 00:51:22;;;;;;;0.40;0.38;;;24.40;59.40;;;;;;6245458;28;20094;-71
2021/08/08 00:54:23;;;;;;;0.30;0.20;;;24.30;59.30;;;;;;6242880;28;20083;-71
2021/08/08 00:57:23;;;;;;;0.75;0.43;;;24.30;59.30;;;;;;6244837;28;20053;-70
2021/08/08 01:00:24;;;;;;;0.28;0.28;;;24.30;59.30;;;;;;6244973;28;20056;-71
2021/08/08 01:03:27;;;;;;;0.35;0.28;;;24.30;59.30;;;;;;6244165;28;20100;-71
2021/08/08 01:06:40;;;;;;;1.08;0.20;;;24.30;59.40;;;;;;6244976;28;20014;-71
2021/08/08 01:09:47;;;;;;;0.30;0.20;;;24.30;59.30;;;;;;6244452;28;20372;-70
2021/08/08 01:12:50;;;;;;;0.20;0.20;;;24.30;59.30;;;;;;6244827;28;20353;-71
2021/08/08 01:15:51;;;;;;;0.40;0.40;;;24.30;59.30;;;;;;6237176;28;20488;-70
2021/08/08 01:18:52;;;;;;;0.63;0.30;;;24.30;59.30;;;;;;6244275;28;20017;-71
2021/08/08 01:21:54;;;;;;;0.30;0.30;;;24.30;59.40;;;;;;6243824;28;20026;-71
2021/08/08 01:24:57;;;;;;;0.30;0.30;;;24.30;59.40;;;;;;6243888;28;20114;-71
2021/08/08 01:27:59;;;;;;;0.40;0.40;;;24.30;59.30;;;;;;6244457;28;20108;-71
2021/08/08 01:31:00;;;;;;;0.52;0.40;;;24.30;59.30;;;;;;6244331;28;20026;-71
2021/08/08 01:34:00;;;;;;;0.50;0.38;;;24.30;59.30;;;;;;6243971;28;20018;-71
2021/08/08 01:37:01;;;;;;;0.20;0.20;;;24.30;59.30;;;;;;6244063;28;20156;-70
2021/08/08 01:40:09;;;;;;;0.13;0.13;;;24.30;59.40;;;;;;6243733;28;20481;-71
2021/08/08 01:43:16;;;;;;;0.32;0.32;;;24.30;59.30;;;;;;6243957;28;20172;-71
2021/08/08 01:46:20;;;;;;;0.47;0.20;;;24.30;59.40;;;;;;6243614;28;20041;-71
2021/08/08 01:49:23;;;;;;;0.30;0.30;;;24.30;59.40;;;;;;6243641;28;20021;-71
2021/08/08 01:52:25;;;;;;;0.10;0.10;;;24.30;59.30;;;;;;6243709;28;20037;-71
2021/08/08 01:55:26;;;;;;;0.20;0.20;;;24.30;59.30;;;;;;6243266;28;20041;-71
2021/08/08 01:58:29;;;;;;;0.20;0.20;;;24.30;59.40;;;;;;6243881;28;20026;-71
2021/08/08 02:01:30;;;;;;;0.35;0.30;;;24.30;59.40;;;;;;6243690;28;20025;-71
2021/08/08 02:04:32;;;;;;;0.30;0.30;;;24.30;59.30;;;;;;6243451;28;20503;-71
2021/08/08 02:07:33;;;;;;;0.30;0.30;;;24.30;59.40;;;;;;6243088;28;20149;-71
2021/08/08 02:10:33;;;;;;;0.20;0.20;;;24.30;59.30;;;;;;6243105;28;20037;-71
2021/08/08 02:13:34;;;;;;;0.20;0.20;;;24.40;59.50;;;;;;6237684;28;20064;-70
2021/08/08 02:16:34;;;;;;;0.20;0.20;;;24.30;59.40;;;;;;6232251;28;20026;-70
2021/08/08 02:19:35;;;;;;;0.70;0.30;;;24.30;59.40;;;;;;6242827;28;20112;-70
2021/08/08 02:22:36;;;;;;;0.20;0.20;;;24.30;59.40;;;;;;6242791;28;20090;-70
2021/08/08 02:25:37;;;;;;;0.43;0.30;;;24.30;59.30;;;;;;6242952;28;20044;-71
2021/08/08 02:28:38;;;;;;;0.20;0.20;;;24.30;59.40;;;;;;6242689;28;20568;-71
2021/08/08 02:31:41;;;;;;;0.47;0.40;;;24.30;59.40;;;;;;6241782;28;20036;-70
2021/08/08 02:34:42;;;;;;;0.20;0.20;;;24.30;59.40;;;;;;6242216;28;20017;-71
2021/08/08 02:37:42;;;;;;;0.20;0.20;;;24.30;59.40;;;;;;6242484;28;20037;-70
2021/08/08 02:40:43;;;;;;;0.20;0.20;;;24.30;59.40;;;;;;6242535;28;20099;-70
2021/08/08 02:43:43;;;;;;;0.30;0.30;;;24.40;59.50;;;;;;6242588;28;20113;-71
2021/08/08 02:46:44;;;;;;;0.20;0.20;;;24.30;59.40;;;;;;6242119;28;20056;-71
2021/08/08 02:49:45;;;;;;;0.43;0.28;;;24.30;60.00;;;;;;6242277;28;20053;-71
2021/08/08 02:52:45;;;;;;;0.22;0.22;;;24.30;59.90;;;;;;6242276;28;20439;-70
2021/08/08 02:55:46;;;;;;;0.30;0.30;;;24.30;59.40;;;;;;6242360;28;20053;-70
2021/08/08 02:58:47;;;;;;;0.20;0.20;;;24.30;59.40;;;;;;6241990;28;20540;-71
2021/08/08 03:01:47;;;;;;;0.20;0.20;;;24.40;59.50;;;;;;6242567;28;20022;-70
2021/08/08 03:04:47;;;;;;;0.30;0.20;;;24.40;59.50;;;;;;6242067;28;20144;-71
2021/08/08 03:07:49;;;;;;;0.30;0.30;;;24.30;59.40;;;;;;6242150;28;20101;-71
2021/08/08 03:10:49;;;;;;;0.20;0.20;;;24.30;59.40;;;;;;6242588;28;20363;-71
2021/08/08 03:13:50;;;;;;;0.30;0.30;;;24.30;59.40;;;;;;6235481;28;20389;-71
2021/08/08 03:16:50;;;;;;;0.40;0.30;;;24.30;59.40;;;;;;6240402;28;20080;-70
2021/08/08 03:19:51;;;;;;;1.65;0.40;;;24.30;59.40;;;;;;6241956;28;20014;-71
2021/08/08 03:22:51;;;;;;;0.57;0.30;;;24.30;59.40;;;;;;6241340;28;20338;-71
2021/08/08 03:25:52;;;;;;;0.30;0.22;;;24.30;59.40;;;;;;6241542;28;20040;-71
2021/08/08 03:28:53;;;;;;;0.52;0.30;;;24.30;59.40;;;;;;6241733;28;20033;-71
2021/08/08 03:31:53;;;;;;;0.28;0.28;;;24.30;59.40;;;;;;6241551;28;20261;-70
2021/08/08 03:34:54;;;;;;;0.95;0.30;;;24.30;59.40;;;;;;6241784;28;20426;-71
2021/08/08 03:37:55;;;;;;;0.20;0.20;;;24.30;59.40;;;;;;6240846;28;20029;-71
2021/08/08 03:40:55;;;;;;;0.73;0.40;;;24.40;59.50;;;;;;6241416;28;20088;-70
2021/08/08 03:43:56;;;;;;;0.32;0.28;;;24.40;59.50;;;;;;6241282;28;20361;-70
2021/08/08 03:46:56;;;;;;;0.20;0.20;;;24.30;59.40;;;;;;6241424;28;20361;-71
2021/08/08 03:49:57;;;;;;;0.75;0.40;;;24.30;59.40;;;;;;6241175;28;20026;-71
2021/08/08 03:52:57;;;;;;;0.57;0.35;;;24.30;59.50;;;;;;6241009;28;20022;-71
2021/08/08 03:55:58;;;;;;;0.30;0.30;;;24.30;59.40;;;;;;6241356;28;20553;-71
2021/08/08 03:58:58;;;;;;;0.30;0.30;;;24.30;59.40;;;;;;6240810;28;20107;-70
2021/08/08 04:01:59;;;;;;;0.30;0.30;;;24.30;59.40;;;;;;6240991;28;20496;-70
2021/08/08 04:04:59;;;;;;;0.30;0.30;;;24.30;59.50;;;;;;6241178;28;20034;-70
2021/08/08 04:08:00;;;;;;;0.22;0.20;;;24.30;59.40;;;;;;6241274;28;20420;-70
2021/08/08 04:11:01;;;;;;;0.20;0.20;;;24.30;59.40;;;;;;6241303;28;20349;-70
2021/08/08 04:14:01;;;;;;;0.20;0.20;;;24.30;59.50;;;;;;6231288;28;20038;-71
2021/08/08 04:17:03;;;;;;;0.35;0.35;;;24.30;59.40;;;;;;6216508;28;20048;-71
2021/08/08 04:20:04;;;;;;;0.20;0.20;;;24.30;59.50;;;;;;6239454;28;20053;-71
2021/08/08 04:23:06;;;;;;;0.13;0.13;;;24.30;59.40;;;;;;6240527;28;20045;-70
2021/08/08 04:26:07;;;;;;;0.20;0.20;;;24.30;59.40;;;;;;6241145;28;20022;-71
2021/08/08 04:29:07;;;;;;;0.10;0.10;;;24.30;59.40;;;;;;6240346;28;20587;-70
2021/08/08 04:32:08;;;;;;;0.30;0.30;;;24.30;59.40;;;;;;6240746;28;20029;-71
2021/08/08 04:35:09;;;;;;;0.20;0.20;;;24.30;59.40;;;;;;6240636;28;20060;-71
2021/08/08 04:38:10;;;;;;;0.17;0.17;;;24.30;59.40;;;;;;6240559;28;20396;-71
2021/08/08 04:41:10;;;;;;;0.20;0.20;;;24.30;59.40;;;;;;6240883;28;20022;-71
2021/08/08 04:44:10;;;;;;;0.20;0.20;;;24.30;59.40;;;;;;6240117;28;20037;-70
2021/08/08 04:47:11;;;;;;;0.20;0.20;;;24.30;59.40;;;;;;6240668;28;20082;-70
2021/08/08 04:50:11;;;;;;;0.50;0.22;;;24.30;59.40;;;;;;6240522;28;20116;-71
2021/08/08 04:53:16;;;;;;;0.22;0.22;;;24.30;59.40;;;;;;6240137;28;20022;-71
2021/08/08 04:56:16;;;;;;;0.20;0.20;;;24.30;59.40;;;;;;6242115;28;20056;-71
2021/08/08 04:59:17;;;;;;;0.32;0.30;;;24.30;59.40;;;;;;6245187;28;20484;-71
2021/08/08 05:02:21;;;;;;;0.40;0.30;;;24.30;59.40;;;;;;6247398;28;20024;-71
2021/08/08 05:05:21;;;;;;;0.20;0.20;;;24.30;59.40;;;;;;6247662;28;20515;-72
2021/08/08 05:08:22;;;;;;;0.22;0.22;;;24.30;59.40;;;;;;6245739;28;20045;-71
2021/08/08 05:11:22;;;;;;;0.22;0.22;;;24.30;59.40;;;;;;6244877;28;20237;-71
2021/08/08 05:14:23;;;;;;;0.60;0.30;;;24.30;59.40;;;;;;6235204;28;20030;-71
2021/08/08 05:17:23;;;;;;;0.20;0.20;;;24.40;59.50;;;;;;6244949;28;20044;-70
2021/08/08 05:20:24;;;;;;;0.30;0.30;;;24.30;59.40;;;;;;6244541;28;20030;-71
2021/08/08 05:23:24;;;;;;;0.40;0.30;;;24.30;59.40;;;;;;6244373;28;20057;-71
2021/08/08 05:26:25;;;;;;;0.52;0.28;;;24.30;59.40;;;;;;6220250;28;20099;-70
2021/08/08 05:29:25;;;;;;;0.38;0.30;;;24.30;59.50;;;;;;6242742;28;20095;-71
2021/08/08 05:32:26;;;;;;;0.22;0.15;;;24.30;59.40;;;;;;6241902;28;20500;-70
2021/08/08 05:35:27;;;;;;;0.30;0.20;;;24.30;60.20;;;;;;6242464;28;20104;-70
2021/08/08 05:38:27;;;;;;;0.38;0.38;;;24.30;59.50;;;;;;6243251;28;20516;-71
2021/08/08 05:41:28;;;;;;;0.63;0.20;;;24.30;59.40;;;;;;6242335;28;20026;-72
2021/08/08 05:44:28;;;;;;;0.15;0.10;;;24.40;59.50;;;;;;6238870;28;20018;-71
2021/08/08 05:47:29;;;;;;;1.95;0.30;;;24.40;59.50;;;;;;6242298;28;20452;-71
2021/08/08 05:50:29;;;;;;;6.80;0.50;;;24.40;59.80;;;;;;6242316;28;20129;-71
2021/08/08 05:53:30;;;;;;;0.90;0.22;;;24.40;59.70;;;;;;6235800;28;20048;-71
2021/08/08 05:56:31;;;;;;;5.75;0.40;;;24.40;59.60;;;;;;6243436;28;20056;-71
2021/08/08 05:59:31;;;;;;;1.05;0.30;;;24.40;59.70;;;;;;6243471;28;20538;-71
2021/08/08 06:02:31;;;;;;;1.02;0.32;;;24.40;59.60;;;;;;6243308;28;20041;-71
2021/08/08 06:05:32;;;;;;;5.60;0.52;;;24.40;59.50;;;;;;6243650;28;20429;-71
2021/08/08 06:08:33;;;;;;;1.55;0.45;;;24.40;59.50;;;;;;6243593;28;20032;-71
2021/08/08 06:11:33;;;;;;;1.92;0.40;;;24.40;59.50;;;;;;6243128;28;20512;-71
2021/08/08 06:14:34;;;;;;;1.92;0.40;;;24.40;59.50;;;;;;6229217;28;20108;-71
2021/08/08 06:17:35;;;;;;;2.67;0.52;;;24.40;59.60;;;;;;6237762;28;20074;-72
2021/08/08 06:20:35;;;;;;;0.40;0.30;;;24.40;59.60;;;;;;6241663;28;20029;-71
2021/08/08 06:23:36;;;;;;;1.15;0.30;;;24.40;59.60;;;;;;6243069;28;20042;-71
2021/08/08 06:26:37;;;;;;;1.15;0.52;;;24.40;59.60;;;;;;6242736;28;20021;-71
2021/08/08 06:29:37;;;;;;;3.47;0.57;;;24.40;59.60;;;;;;6242789;28;20049;-71
2021/08/08 06:32:38;;;;;;;0.63;0.30;;;24.40;59.60;;;;;;6242851;28;20455;-71
2021/08/08 06:35:38;;;;;;;1.10;0.50;;;24.40;59.60;;;;;;6242766;28;20024;-72
2021/08/08 06:38:39;;;;;;;0.55;0.40;;;24.40;59.60;;;;;;6243205;28;20045;-71
2021/08/08 06:41:39;;;;;;;0.50;0.30;;;24.40;59.60;;;;;;6243010;28;20026;-71
2021/08/08 06:44:40;;;;;;;1.60;0.40;;;24.40;59.60;;;;;;6242906;28;20498;-72
2021/08/08 06:47:40;;;;;;;2.15;0.45;;;24.40;59.60;;;;;;6242623;28;20380;-71
2021/08/08 06:50:41;;;;;;;1.98;0.68;;;24.40;59.60;;;;;;6242129;28;20318;-71
2021/08/08 06:53:41;;;;;;;0.90;0.45;;;24.40;59.60;;;;;;6241460;28;20029;-71
2021/08/08 06:56:42;;;;;;;2.22;0.70;;;24.40;59.60;;;;;;6242145;28;20515;-71
2021/08/08 06:59:42;;;;;;;2.47;0.60;;;24.40;59.60;;;;;;6242686;28;20051;-71
2021/08/08 07:02:45;;;;;;;1.17;0.70;;;24.40;59.60;;;;;;6241685;28;20029;-71
2021/08/08 07:05:45;;;;;;;1.25;0.70;;;24.40;59.60;;;;;;6242258;28;20028;-71
2021/08/08 07:08:46;;;;;;;1.25;0.70;;;24.40;59.50;;;;;;6242431;28;20377;-71
2021/08/08 07:11:46;;;;;;;2.17;0.75;;;24.40;59.50;;;;;;6242007;28;20515;-71
2021/08/08 07:14:47;;;;;;;2.40;0.68;;;24.40;59.60;;;;;;6226343;28;20041;-71
2021/08/08 07:17:48;;;;;;;2.17;1.00;;;24.40;59.60;;;;;;6234453;28;20036;-71
2021/08/08 07:20:48;;;;;;;1.52;0.63;;;24.40;59.50;;;;;;6241591;28;20072;-71
2021/08/08 07:23:49;;;;;;;3.92;1.00;;;24.40;59.60;;;;;;6241347;28;20025;-71
2021/08/08 07:26:49;;;;;;;3.25;0.98;;;24.40;59.50;;;;;;6241937;28;20555;-71
2021/08/08 07:29:49;;;;;;;6.05;1.35;;;24.40;59.60;;;;;;6241598;28;20033;-71
2021/08/08 07:32:50;;;;;;;3.13;1.05;;;24.40;59.50;;;;;;6241280;28;20516;-71
2021/08/08 07:35:51;;;;;;;5.38;1.35;;;24.40;59.50;;;;;;6241648;28;20021;-71
2021/08/08 07:38:52;;;;;;;4.45;1.10;;;24.40;59.50;;;;;;6241270;28;20362;-71
2021/08/08 07:41:52;;;;;;;5.95;1.45;;;24.40;59.50;;;;;;6241324;28;20059;-71
2021/08/08 07:44:53;;;;;;;8.40;1.58;;;24.40;59.50;;;;;;6241500;28;20034;-71
2021/08/08 07:47:53;;;;;;;5.22;1.40;;;24.40;59.50;;;;;;6241460;28;20108;-71
2021/08/08 07:50:54;;;;;;;5.03;1.20;;;24.40;59.50;;;;;;6241499;28;20096;-71
2021/08/08 07:53:54;;;;;;;4.22;1.30;;;24.40;59.50;;;;;;6240979;28;20038;-71
2021/08/08 07:56:55;;;;;;;5.40;1.38;;;24.40;59.50;;;;;;6240813;28;20060;-71
2021/08/08 07:59:55;;;;;;;4.55;1.33;;;24.40;59.50;;;;;;6241201;28;20087;-71
2021/08/08 08:02:56;;;;;;;5.25;1.45;;;24.40;59.50;;;;;;6240857;28;20041;-71
2021/08/08 08:05:56;;;;;;;6.50;1.30;;;24.40;59.50;;;;;;6241475;28;20033;-71
2021/08/08 08:08:57;;;;;;;10.52;2.05;;;24.40;60.20;;;;;;6240902;28;20022;-71
2021/08/08 08:11:57;;;;;;;5.97;1.40;;;24.40;59.50;;;;;;6240653;28;20237;-71
2021/08/08 08:14:58;;;;;;;5.45;1.70;;;24.40;59.50;;;;;;6223767;28;20022;-71
2021/08/08 08:17:59;;;;;;;4.53;1.50;;;24.40;59.50;;;;;;6221705;28;20052;-71
2021/08/08 08:20:59;;;;;;;4.65;1.45;;;24.40;59.50;;;;;;6241177;28;20033;-71
2021/08/08 08:24:00;;;;;;;6.43;1.50;;;24.40;59.50;;;;;;6240661;28;20056;-71
2021/08/08 08:27:00;;;;;;;7.57;1.52;;;24.40;59.50;;;;;;6241265;28;20037;-71
2021/08/08 08:30:01;;;;;;;5.55;1.48;;;24.40;59.50;;;;;;6240266;28;20034;-71
2021/08/08 08:33:04;;;;;;;4.35;1.25;;;24.40;59.50;;;;;;6245573;28;20029;-71
2021/08/08 08:36:05;;;;;;;3.70;1.40;;;24.40;59.50;;;;;;6245980;28;20021;-71
2021/08/08 08:39:06;;;;;;;3.65;1.40;;;24.40;59.50;;;;;;6243513;28;20120;-70
2021/08/08 08:42:09;;;;;;;4.93;1.33;;;24.40;59.50;;;;;;6244805;28;20080;-71
2021/08/08 08:45:12;;;;;;;5.75;1.65;;;24.40;59.50;;;;;;6245485;28;20029;-71
2021/08/08 08:48:17;;;;;;;4.07;1.40;;;24.40;59.50;;;;;;6245774;28;20029;-71
2021/08/08 08:51:18;;;;;;;;;;;24.40;59.60;;;;;;6245267;28;20064;-71
2021/08/08 08:54:20;;;;;;;5.25;1.45;;;24.40;59.60;;;;;;6244677;28;19963;-71
2021/08/08 08:57:21;;;;;;;4.65;1.50;;;24.40;59.60;;;;;;6245088;28;20300;-71
2021/08/08 09:00:23;;;;;;;5.03;1.42;;;24.40;59.60;;;;;;6244847;28;20492;-71
2021/08/08 09:03:24;;;;;;;5.22;1.50;;;24.40;59.60;;;;;;6244388;28;20403;-71
2021/08/08 09:06:24;;;;;;;5.03;1.60;;;24.40;59.60;;;;;;6244914;28;20028;-71
2021/08/08 09:09:25;;;;;;;3.33;1.20;;;24.40;59.60;;;;;;6244968;28;20026;-71
2021/08/08 09:12:29;;;;;;;7.20;1.85;;;24.40;59.60;;;;;;6244531;28;20162;-71
2021/08/08 09:15:44;;;;;;;4.10;1.48;;;24.40;59.50;;;;;;6235208;28;20026;-71
2021/08/08 09:18:55;;;;;;;5.10;1.58;;;24.40;59.60;;;;;;6244381;28;20389;-71
2021/08/08 09:21:56;;;;;;;2.88;1.20;;;24.40;59.50;;;;;;6244136;28;20065;-71
2021/08/08 09:24:58;;;;;;;3.47;1.25;;;24.40;59.50;;;;;;6244686;28;20021;-71
2021/08/08 09:28:10;;;;;;;6.63;1.65;;;24.40;59.50;;;;;;6244018;28;20345;-70
2021/08/08 09:31:19;;;;;;;4.15;1.52;;;24.40;59.60;;;;;;6244342;28;20033;-71
2021/08/08 09:34:25;;;;;;;4.90;1.42;;;24.40;59.50;;;;;;6244362;28;20159;-71
2021/08/08 09:37:25;;;;;;;4.60;1.40;;;24.40;59.50;;;;;;6220248;28;20030;-71
2021/08/08 09:40:26;;;;;;;3.63;1.38;;;24.40;59.50;;;;;;6226797;28;20037;-71
2021/08/08 09:43:29;;;;;;;2.63;1.10;;;24.40;59.60;;;;;;6243174;28;20029;-71
2021/08/08 09:46:29;;;;;;;3.15;1.17;;;24.40;59.60;;;;;;6243993;28;20389;-71
2021/08/08 09:49:30;;;;;;;3.53;1.35;;;24.40;59.60;;;;;;6243994;28;20051;-71
2021/08/08 09:52:32;;;;;;;3.75;1.30;;;24.40;59.50;;;;;;6243194;28;20038;-71
2021/08/08 09:55:35;;;;;;;2.58;1.20;;;24.40;59.50;;;;;;6243454;28;20109;-71
2021/08/08 09:58:39;;;;;;;2.40;1.08;;;24.40;59.50;;;;;;6243806;28;20562;-71
2021/08/08 10:01:40;;;;;;;2.80;1.27;;;24.40;59.50;;;;;;6243950;28;20033;-71
2021/08/08 10:04:40;;;;;;;3.20;1.25;;;24.40;59.60;;;;;;6243441;28;20079;-71
2021/08/08 10:07:41;;;;;;;2.15;0.90;;;24.40;59.50;;;;;;6243569;28;20439;-71
2021/08/08 10:10:45;;;;;;;2.28;1.10;;;24.40;59.60;;;;;;6243691;28;20036;-71
2021/08/08 10:14:04;;;;;;;1.45;0.80;;;24.40;59.60;;;;;;6235887;28;20087;-71
2021/08/08 10:17:09;;;;;;;4.18;1.42;;;24.40;59.50;;;;;;6234245;28;20030;-71
2021/08/08 10:20:10;;;;;;;2.10;0.80;;;24.40;59.50;;;;;;6243397;28;20468;-71
2021/08/08 10:23:14;;;;;;;2.00;0.90;;;24.40;59.50;;;;;;6243543;28;20048;-71
2021/08/08 10:26:14;;;;;;;3.22;1.20;;;24.40;59.50;;;;;;6243232;28;20017;-71
2021/08/08 10:29:15;;;;;;;3.08;1.10;;;24.40;59.50;;;;;;6242740;28;20021;-71
2021/08/08 10:32:17;;;;;;;2.15;1.00;;;24.40;59.50;;;;;;6243010;28;20637;-71
2021/08/08 10:35:18;;;;;;;1.42;0.82;;;24.40;59.50;;;;;;6243217;28;20320;-71
2021/08/08 10:38:19;;;;;;;2.63;1.10;;;24.40;59.50;;;;;;6242576;28;20053;-70
2021/08/08 10:41:19;;;;;;;2.58;0.90;;;24.40;59.50;;;;;;6242892;28;20023;-71
2021/08/08 10:44:22;;;;;;;1.95;1.05;;;24.40;59.50;;;;;;6242223;28;20032;-71
2021/08/08 10:47:31;;;;;;;2.95;1.20;;;24.40;59.50;;;;;;6243251;28;20032;-71
2021/08/08 10:50:41;;;;;;;2.35;1.00;;;24.40;59.50;;;;;;6238563;28;20033;-71
2021/08/08 10:53:42;;;;;;;2.50;0.93;;;24.40;59.50;;;;;;6232335;28;20459;-71
2021/08/08 10:56:47;;;;;;;2.85;1.38;;;24.40;59.50;;;;;;6242000;28;20140;-71
2021/08/08 10:59:49;;;;;;;;;;;24.40;59.60;;;;;;6242905;28;20094;-71
2021/08/08 11:02:49;;;;;;;1.98;0.95;;;24.40;59.50;;;;;;6241441;28;20003;-71
2021/08/08 11:05:50;;;;;;;1.75;0.88;;;24.40;59.50;;;;;;6242579;28;20044;-71
2021/08/08 11:08:55;;;;;;;2.97;1.10;;;24.40;59.50;;;;;;6242014;28;20103;-71
2021/08/08 11:11:56;;;;;;;2.88;1.10;;;24.40;59.50;;;;;;6241696;28;20034;-71
2021/08/08 11:14:56;;;;;;;2.25;1.00;;;24.40;59.60;;;;;;6225018;28;20053;-71
2021/08/08 11:17:58;;;;;;;2.25;0.90;;;24.40;59.60;;;;;;6226833;28;20325;-71
2021/08/08 11:21:09;;;;;;;2.80;1.02;;;24.40;59.50;;;;;;6242397;28;20037;-71
2021/08/08 11:24:11;;;;;;;1.90;0.70;;;24.40;59.50;;;;;;6241355;28;20428;-71
2021/08/08 11:27:12;;;;;;;1.90;1.00;;;24.40;59.50;;;;;;6241713;28;20485;-72
2021/08/08 11:30:15;;;;;;;1.73;0.90;;;24.40;59.50;;;;;;6241748;28;20036;-71
2021/08/08 11:33:16;;;;;;;2.08;0.90;;;24.40;59.50;;;;;;6241636;28;20140;-71
2021/08/08 11:36:34;;;;;;;1.83;0.77;;;24.40;59.50;;;;;;6241495;28;20483;-71
2021/08/08 11:39:36;;;;;;;1.48;0.80;;;24.40;59.50;;;;;;6241271;28;20025;-71
2021/08/08 11:42:36;;;;;;;3.25;1.15;;;24.40;59.50;;;;;;6241392;28;20025;-71
2021/08/08 11:45:59;;;;;;;1.92;0.90;;;24.40;59.50;;;;;;6241207;28;20029;-71
2021/08/08 11:48:59;;;;;;;3.15;0.70;;;24.40;60.30;;;;;;6241361;28;20068;-71
2021/08/08 11:52:02;;;;;;;1.77;0.80;;;24.40;59.50;;;;;;6240868;28;20497;-71
2021/08/08 11:55:05;;;;;;;1.15;0.70;;;24.40;59.50;;;;;;6241222;28;20109;-71
2021/08/08 11:58:06;;;;;;;1.40;0.77;;;24.40;59.50;;;;;;6241051;28;20057;-71
2021/08/08 12:01:09;;;;;;;0.77;0.50;;;24.40;59.60;;;;;;6241119;28;20179;-71
2021/08/08 12:04:10;;;;;;;1.63;0.70;;;24.40;59.50;;;;;;6240885;28;20033;-71
2021/08/08 12:07:11;;;;;;;1.63;0.77;;;24.40;59.50;;;;;;6246486;28;20040;-71
2021/08/08 12:10:12;;;;;;;1.85;0.93;;;24.40;59.50;;;;;;6245779;28;20037;-71
2021/08/08 12:13:15;;;;;;;1.55;0.70;;;24.40;59.50;;;;;;6243500;28;20036;-71
2021/08/08 12:16:16;;;;;;;1.00;0.60;;;24.40;59.50;;;;;;6221499;28;20069;-71
2021/08/08 12:19:28;;;;;;;1.55;0.85;;;24.40;59.50;;;;;;6237345;28;20108;-71
2021/08/08 12:22:31;;;;;;;0.95;0.70;;;24.40;59.50;;;;;;6245970;28;20026;-71
2021/08/08 12:25:31;;;;;;;1.52;0.50;;;24.40;59.50;;;;;;6247493;28;20032;-71
2021/08/08 12:28:32;;;;;;;1.02;0.52;;;24.40;59.50;;;;;;6246447;28;20029;-71
2021/08/08 12:31:38;;;;;;;0.40;0.38;;;24.40;59.50;;;;;;6245597;28;20040;-71
2021/08/08 12:34:41;;;;;;;2.10;0.70;;;24.40;59.50;;;;;;6246039;28;20029;-71
2021/08/08 12:37:43;;;;;;;1.00;0.50;;;24.40;59.50;;;;;;6246514;28;20021;-71
2021/08/08 12:40:49;;;;;;;0.98;0.65;;;24.40;59.60;;;;;;6245243;28;20409;-71
2021/08/08 12:43:55;;;;;;;1.25;0.70;;;24.40;59.50;;;;;;6245657;28;20022;-71
2021/08/08 12:47:00;;;;;;;1.67;0.60;;;24.40;59.50;;;;;;6244894;28;20719;-71
2021/08/08 12:50:12;;;;;;;1.15;0.60;;;24.40;59.50;;;;;;6244828;28;20025;-71
2021/08/08 12:53:13;;;;;;;1.95;0.80;;;24.40;59.50;;;;;;6244800;28;20079;-71
2021/08/08 12:56:13;;;;;;;2.08;0.88;;;24.40;59.60;;;;;;6244523;28;20053;-71
2021/08/08 12:59:14;;;;;;;1.08;0.60;;;24.40;59.50;;;;;;6244541;28;20048;-71
2021/08/08 13:02:15;;;;;;;1.50;0.82;;;24.40;59.60;;;;;;6245019;28;20037;-71
2021/08/08 13:05:15;;;;;;;0.88;0.50;;;24.40;59.60;;;;;;6244660;28;20495;-71
2021/08/08 13:08:18;;;;;;;1.17;0.60;;;24.40;59.50;;;;;;6244255;28;20550;-71
2021/08/08 13:11:19;;;;;;;2.70;0.80;;;24.40;59.60;;;;;;6244008;28;20095;-71
2021/08/08 13:14:20;;;;;;;1.00;0.50;;;24.40;59.50;;;;;;6232852;28;20472;-71
2021/08/08 13:17:20;;;;;;;1.30;0.50;;;24.40;59.60;;;;;;6243074;28;20029;-71
2021/08/08 13:20:21;;;;;;;0.80;0.57;;;24.40;59.50;;;;;;6243972;28;20033;-71
2021/08/08 13:23:22;;;;;;;0.68;0.50;;;24.40;59.50;;;;;;6244180;28;20091;-71
2021/08/08 13:26:23;;;;;;;0.70;0.50;;;24.40;59.50;;;;;;6243067;28;20029;-71
2021/08/08 13:29:23;;;;;;;0.93;0.50;;;24.40;59.50;;;;;;6242921;28;20037;-71
2021/08/08 13:32:24;;;;;;;0.80;0.43;;;24.40;59.60;;;;;;6243796;28;20133;-71
2021/08/08 13:35:24;;;;;;;0.70;0.50;;;24.40;59.50;;;;;;6242799;28;20116;-71
2021/08/08 13:38:25;;;;;;;0.57;0.50;;;24.40;59.50;;;;;;6243710;28;20059;-71
2021/08/08 13:41:25;;;;;;;0.60;0.43;;;24.40;59.50;;;;;;6243989;28;20136;-71
2021/08/08 13:44:26;;;;;;;1.00;0.52;;;24.40;59.50;;;;;;6243587;28;20046;-71
2021/08/08 13:47:27;;;;;;;1.70;0.63;;;24.40;59.50;;;;;;6243542;28;20097;-71
2021/08/08 13:50:27;;;;;;;0.40;0.35;;;24.40;59.50;;;;;;6243288;28;20083;-71
2021/08/08 13:53:29;;;;;;;1.33;0.60;;;24.40;59.60;;;;;;6243857;28;20037;-71
2021/08/08 13:56:29;;;;;;;0.47;0.20;;;24.40;59.50;;;;;;6243079;28;20115;-71
2021/08/08 13:59:30;;;;;;;0.60;0.50;;;24.40;59.50;;;;;;6244127;28;20029;-71
2021/08/08 14:02:32;;;;;;;1.05;0.50;;;24.40;59.50;;;;;;6242814;28;20025;-72
2021/08/08 14:05:32;;;;;;;0.40;0.40;;;24.40;59.50;;;;;;6243357;28;20365;-71
2021/08/08 14:08:33;;;;;;;1.88;0.70;;;24.40;59.50;;;;;;6243260;28;20037;-71
2021/08/08 14:11:33;;;;;;;0.65;0.38;;;24.40;59.60;;;;;;6242776;28;20444;-71
2021/08/08 14:14:34;;;;;;;0.85;0.65;;;24.30;59.50;;;;;;6229203;28;20257;-71
2021/08/08 14:17:35;;;;;;;0.60;0.40;;;24.40;59.50;;;;;;6234748;28;20026;-71
2021/08/08 14:20:35;;;;;;;0.73;0.40;;;24.40;59.50;;;;;;6242928;28;20021;-71
2021/08/08 14:23:36;;;;;;;0.70;0.40;;;24.40;59.50;;;;;;6243099;28;20047;-71
2021/08/08 14:26:37;;;;;;;0.98;0.55;;;24.40;59.50;;;;;;6242208;28;20033;-71
2021/08/08 14:29:37;;;;;;;0.65;0.40;;;24.40;59.50;;;;;;6242893;28;20663;-70
2021/08/08 14:32:38;;;;;;;0.63;0.40;;;24.40;59.50;;;;;;6242067;28;20041;-71
2021/08/08 14:35:38;;;;;;;0.73;0.40;;;24.40;59.50;;;;;;6242680;28;20022;-71
2021/08/08 14:38:39;;;;;;;0.60;0.43;;;24.40;59.50;;;;;;6242218;28;20037;-71
2021/08/08 14:41:39;;;;;;;1.38;0.52;;;24.40;59.50;;;;;;6242095;28;20036;-71
2021/08/08 14:44:40;;;;;;;0.40;0.38;;;24.40;59.50;;;;;;6242283;28;20064;-71
2021/08/08 14:47:40;;;;;;;0.60;0.30;;;24.40;59.50;;;;;;6242222;28;20029;-71
2021/08/08 14:50:41;;;;;;;0.30;0.30;;;24.40;59.50;;;;;;6242100;28;20481;-71
2021/08/08 14:53:41;;;;;;;1.08;0.40;;;24.40;59.50;;;;;;6241989;28;20025;-71
2021/08/08 14:56:42;;;;;;;2.67;0.50;;;24.30;59.40;;;;;;6241600;28;20071;-71
2021/08/08 14:59:42;;;;;;;0.30;0.30;;;24.40;59.50;;;;;;6242063;28;20488;-71
2021/08/08 15:02:43;;;;;;;0.85;0.40;;;24.40;59.50;;;;;;6241785;28;20027;-71
2021/08/08 15:05:43;;;;;;;0.55;0.30;;;24.40;59.50;;;;;;6241903;28;20044;-71
2021/08/08 15:08:45;;;;;;;0.90;0.38;;;24.40;59.50;;;;;;6241905;28;20078;-71
2021/08/08 15:11:45;;;;;;;0.30;0.30;;;24.40;59.50;;;;;;6241504;28;20057;-71
2021/08/08 15:14:46;;;;;;;0.40;0.32;;;24.30;59.40;;;;;;6226299;28;20052;-71
2021/08/08 15:17:46;;;;;;;1.02;0.55;;;24.40;59.50;;;;;;6222518;28;20460;-71
2021/08/08 15:20:47;;;;;;;0.60;0.55;;;24.40;59.50;;;;;;6241585;28;20048;-71
2021/08/08 15:23:47;;;;;;;0.50;0.30;;;24.40;59.50;;;;;;6241262;28;20057;-71
2021/08/08 15:26:48;;;;;;;0.82;0.43;;;24.30;59.50;;;;;;6241547;28;20060;-71
2021/08/08 15:29:49;;;;;;;0.50;0.30;;;24.40;59.50;;;;;;6241542;28;20025;-71
2021/08/08 15:32:49;;;;;;;0.32;0.32;;;24.30;59.50;;;;;;6241013;28;20049;-71
2021/08/08 15:35:50;;;;;;;0.50;0.40;;;24.40;59.50;;;;;;6241353;28;20021;-73
2021/08/08 15:38:50;;;;;;;0.32;0.32;;;24.30;60.10;;;;;;6240616;28;20218;-71
2021/08/08 15:41:51;;;;;;;0.82;0.45;;;24.40;59.50;;;;;;6241119;28;20071;-70
2021/08/08 15:44:51;;;;;;;0.98;0.40;;;24.40;59.50;;;;;;6241284;28;20627;-71